createdAt,value
2019-04-06T12:58:00.917Z,26.50
2019-04-06T13:01:14.824Z,25.40
2019-04-06T13:03:50.756Z,24.70
2019-04-06T13:07:02.388Z,24.30
2019-04-06T13:10:40.427Z,24.10
2019-04-06T13:13:19.903Z,24.00
2019-04-06T13:15:54.347Z,24.00
2019-04-06T13:20:37.741Z,23.90
2019-04-06T13:24:50.158Z,23.90
2019-04-06T13:30:11.784Z,23.60
2019-04-06T13:34:25.541Z,23.40
2019-04-06T13:36:59.246Z,23.30
2019-04-06T13:39:51.264Z,23.30
2019-04-06T13:42:25.152Z,23.30
2019-04-06T13:45:17.501Z,23.20
2019-04-06T13:47:50.017Z,23.20
2019-04-06T13:50:28.637Z,23.10
2019-04-06T13:53:13.587Z,23.10
2019-04-06T13:55:47.361Z,23.00
2019-04-06T13:58:23.329Z,23.00
2019-04-06T14:01:16.374Z,23.00
2019-04-06T14:04:02.611Z,22.90
2019-04-06T14:06:44.789Z,22.90
2019-04-06T14:09:19.473Z,22.90
2019-04-06T14:11:52.877Z,22.80
2019-04-06T14:14:37.932Z,22.80
2019-04-06T14:17:23.647Z,22.80
2019-04-06T14:20:08.032Z,22.80
2019-04-06T14:22:48.312Z,22.70
2019-04-06T14:25:40.222Z,22.70
2019-04-06T14:28:18.418Z,22.70
2019-04-06T14:31:02.693Z,22.70
2019-04-06T14:33:39.941Z,22.70
2019-04-06T14:36:25.567Z,22.60
2019-04-06T14:39:24.466Z,22.60
2019-04-06T14:42:23.151Z,22.60
2019-04-06T14:45:12.802Z,22.50
2019-04-06T14:48:02.601Z,22.50
2019-04-06T14:50:35.409Z,22.50
2019-04-06T14:53:30.966Z,22.50
2019-04-06T14:56:07.889Z,22.50
2019-04-06T14:58:41.924Z,22.50
2019-04-06T15:01:40.203Z,22.40
2019-04-06T15:04:07.158Z,22.40
2019-04-06T15:07:09.558Z,22.40
2019-04-06T15:09:46.980Z,22.40
2019-04-06T15:12:23.706Z,22.40
2019-04-06T15:15:10.537Z,22.40
2019-04-06T15:18:01.397Z,22.40
2019-04-06T15:20:52.883Z,22.40
2019-04-06T15:23:29.271Z,22.40
2019-04-06T15:26:22.005Z,22.40
2019-04-06T15:29:00.975Z,22.40
2019-04-06T15:31:47.471Z,22.40
2019-04-06T15:34:35.411Z,22.30
2019-04-06T15:37:12.048Z,22.40
2019-04-06T15:39:51.404Z,22.30
2019-04-06T15:42:36.683Z,22.30
2019-04-06T15:45:22.707Z,22.30
2019-04-06T15:48:07.576Z,22.30
2019-04-06T15:50:45.094Z,22.30
2019-04-06T15:53:41.100Z,22.30
2019-04-06T15:56:16.013Z,22.30
2019-04-06T15:58:52.972Z,22.30
2019-04-06T16:01:29.417Z,22.30
2019-04-06T16:04:24.719Z,22.30
2019-04-06T16:07:04.851Z,22.30
2019-04-06T16:09:54.555Z,22.30
2019-04-06T16:12:30.105Z,22.30
2019-04-06T16:15:04.268Z,22.30
2019-04-06T16:17:37.632Z,22.30
2019-04-06T16:20:24.281Z,22.30
2019-04-06T16:23:04.935Z,22.20
2019-04-06T16:25:50.064Z,22.30
2019-04-06T16:28:42.861Z,22.30
2019-04-06T16:31:18.734Z,22.20
2019-04-06T16:33:55.186Z,22.30
2019-04-06T16:36:32.236Z,22.20
2019-04-06T16:39:19.553Z,22.20
2019-04-06T16:42:24.174Z,22.20
2019-04-06T16:45:09.588Z,22.20
2019-04-06T16:47:59.399Z,22.20
2019-04-06T16:50:46.419Z,22.20
2019-04-06T16:53:35.236Z,22.20
2019-04-06T16:56:16.764Z,22.20
2019-04-06T16:59:08.372Z,22.20
2019-04-06T17:01:47.471Z,22.20
2019-04-06T17:04:23.627Z,22.20
2019-04-06T17:07:12.935Z,22.20
2019-04-06T17:10:05.365Z,22.20
2019-04-06T17:12:57.528Z,22.20
2019-04-06T17:15:43.345Z,22.20
2019-04-06T17:18:29.923Z,22.20
2019-04-06T17:21:16.450Z,22.20
2019-04-06T17:24:17.945Z,22.20
2019-04-06T17:27:10.574Z,22.10
2019-04-06T17:29:52.463Z,22.20
2019-04-06T17:32:35.572Z,22.20
2019-04-06T17:35:05.098Z,22.10
2019-04-06T17:37:44.146Z,22.10
2019-04-06T17:40:21.818Z,22.10
2019-04-06T17:43:18.007Z,22.10
2019-04-06T17:46:03.271Z,22.10
2019-04-06T17:48:52.810Z,22.10
2019-04-06T17:51:28.751Z,22.10
2019-04-06T17:54:11.182Z,22.10
2019-04-06T17:56:51.792Z,22.10
2019-04-06T17:59:36.882Z,22.20
2019-04-06T18:02:18.143Z,22.10
2019-04-06T18:04:52.895Z,22.10
2019-04-06T18:07:45.165Z,22.20
2019-04-06T18:10:18.513Z,22.20
2019-04-06T18:13:07.784Z,22.20
2019-04-06T18:15:34.630Z,22.20
2019-04-06T18:18:01.345Z,22.20
2019-04-06T18:20:28.779Z,22.30
2019-04-06T18:22:55.793Z,22.30
2019-04-06T18:25:22.486Z,22.30
2019-04-06T18:27:49.316Z,22.30
2019-04-06T18:30:16.868Z,22.30
2019-04-06T18:32:57.787Z,22.30
2019-04-06T18:35:16.655Z,22.30
2019-04-06T18:37:48.732Z,22.30
2019-04-06T18:40:29.133Z,22.30
2019-04-06T18:42:56.313Z,22.30
2019-04-06T18:45:23.261Z,22.30
2019-04-06T18:47:49.978Z,22.30
2019-04-06T18:50:17.560Z,22.30
2019-04-06T18:52:44.261Z,22.30
2019-04-06T18:55:11.536Z,22.30
2019-04-06T18:57:38.274Z,22.40
2019-04-06T19:00:07.796Z,22.40
2019-04-06T19:02:34.654Z,22.40
2019-04-06T19:05:01.343Z,22.40
2019-04-06T19:07:28.036Z,22.40
2019-04-06T19:09:54.833Z,22.40
2019-04-06T19:12:21.545Z,22.40
2019-04-06T19:14:48.237Z,22.40
2019-04-06T19:17:15.150Z,22.40
2019-04-06T19:19:41.942Z,22.40
2019-04-06T19:22:08.628Z,22.40
2019-04-06T19:24:36.204Z,22.40
2019-04-06T19:27:03.417Z,22.40
2019-04-06T19:29:30.425Z,22.40
2019-04-06T19:31:58.205Z,22.40
2019-04-06T19:34:26.010Z,22.40
2019-04-06T19:36:53.163Z,22.40
2019-04-06T19:39:20.808Z,22.40
2019-04-06T19:41:48.206Z,22.40
2019-04-06T19:44:15.901Z,22.50
2019-04-06T19:46:43.261Z,22.40
2019-04-06T19:49:10.216Z,22.40
2019-04-06T19:51:37.140Z,22.50
2019-04-06T19:54:05.747Z,22.50
2019-04-06T19:56:32.564Z,22.50
2019-04-06T19:58:59.614Z,22.50
2019-04-06T20:01:26.712Z,22.50
2019-04-06T20:03:53.388Z,22.40
2019-04-06T20:06:20.101Z,22.50
2019-04-06T20:08:46.784Z,22.50
2019-04-06T20:11:13.690Z,22.50
2019-04-06T20:13:41.064Z,22.50
2019-04-06T20:16:07.824Z,22.50
2019-04-06T20:18:34.508Z,22.50
2019-04-06T20:21:01.801Z,22.50
2019-04-06T20:23:28.747Z,22.50
2019-04-06T20:25:55.765Z,22.50
2019-04-06T20:28:22.611Z,22.50
2019-04-06T20:30:49.305Z,22.50
2019-04-06T20:33:16.517Z,22.50
2019-04-06T20:35:44.688Z,22.50
2019-04-06T20:38:11.599Z,22.50
2019-04-06T20:40:39.199Z,22.50
2019-04-06T20:43:06.553Z,22.50
2019-04-06T20:45:33.592Z,22.50
2019-04-06T20:48:00.422Z,22.50
2019-04-06T20:50:27.326Z,22.50
2019-04-06T20:52:54.318Z,22.50
2019-04-06T20:55:21.201Z,22.50
2019-04-06T20:57:48.304Z,22.60
2019-04-06T21:00:15.518Z,22.50
2019-04-06T21:02:42.226Z,22.50
2019-04-06T21:05:09.162Z,22.50
2019-04-06T21:07:35.921Z,22.50
2019-04-06T21:10:03.248Z,22.50
2019-04-06T21:12:30.062Z,22.50
2019-04-06T21:14:56.983Z,22.50
2019-04-06T21:17:23.706Z,22.50
2019-04-06T21:19:50.644Z,22.50
2019-04-06T21:22:17.685Z,22.50
2019-04-06T21:24:44.962Z,22.60
2019-04-06T21:27:12.421Z,22.50
2019-04-06T21:29:39.725Z,22.50
2019-04-06T21:32:07.380Z,22.50
2019-04-06T21:34:34.872Z,22.50
2019-04-06T21:37:02.125Z,22.50
2019-04-06T21:39:29.123Z,22.60
2019-04-06T21:41:56.512Z,22.50
2019-04-06T21:44:23.257Z,22.50
2019-04-06T21:46:49.982Z,22.50
2019-04-06T21:49:16.738Z,22.60
2019-04-06T21:51:43.631Z,22.50
2019-04-06T21:54:10.389Z,22.50
2019-04-06T21:56:37.468Z,22.50
2019-04-06T21:59:05.325Z,22.50
2019-04-06T22:01:32.557Z,22.50
2019-04-06T22:04:00.374Z,22.50
2019-04-06T22:06:27.049Z,22.50
2019-04-06T22:08:55.036Z,22.50
2019-04-06T22:11:22.039Z,22.50
2019-04-06T22:13:49.025Z,22.50
2019-04-06T22:16:15.782Z,22.50
2019-04-06T22:18:43.031Z,22.50
2019-04-06T22:21:09.814Z,22.50
2019-04-06T22:23:42.255Z,22.50
2019-04-06T22:26:05.988Z,22.50
2019-04-06T22:28:33.237Z,22.50
2019-04-06T22:31:00.751Z,22.50
2019-04-06T22:33:27.639Z,22.50
2019-04-06T22:35:54.437Z,22.50
2019-04-06T22:38:21.652Z,22.50
2019-04-06T22:40:48.586Z,22.50
2019-04-06T22:43:15.726Z,22.50
2019-04-06T22:45:42.532Z,22.50
2019-04-06T22:48:09.377Z,22.50
2019-04-06T22:50:36.556Z,22.50
2019-04-06T22:53:03.799Z,22.40
2019-04-06T22:55:30.905Z,22.40
2019-04-06T22:57:58.152Z,22.40
2019-04-06T23:00:50.551Z,22.40
2019-04-06T23:03:30.757Z,22.40
2019-04-06T23:06:01.223Z,22.40
2019-04-06T23:08:28.879Z,22.40
2019-04-06T23:10:55.773Z,22.40
2019-04-06T23:13:22.497Z,22.40
2019-04-06T23:15:49.657Z,22.40
2019-04-06T23:18:16.485Z,22.40
2019-04-06T23:20:43.439Z,22.40
2019-04-06T23:23:10.303Z,22.40
2019-04-06T23:25:37.203Z,22.40
2019-04-06T23:28:04.037Z,22.40
2019-04-06T23:30:30.804Z,22.40
2019-04-06T23:32:58.190Z,22.40
2019-04-06T23:35:25.199Z,22.40
2019-04-06T23:37:52.600Z,22.40
2019-04-06T23:40:20.236Z,22.40
2019-04-06T23:42:47.148Z,22.40
2019-04-06T23:45:13.935Z,22.40
2019-04-06T23:47:40.757Z,22.40
2019-04-06T23:50:07.684Z,22.40
2019-04-06T23:52:34.418Z,22.40
2019-04-06T23:55:01.127Z,22.40
2019-04-06T23:57:27.797Z,22.40
2019-04-06T23:59:54.552Z,22.40
